Time;durP1;ratioP1;P1;durP2;ratioP2;P2;SDS_P1;SDS_P2;PMS_P1;PMS_P2;Temp;Humidity;BMP_temperature;BMP_pressure;BME280_temperature;BME280_humidity;BME280_pressure;Samples;Min_cycle;Max_cycle;Signal;HPM_P1;HPM_P2
2023/10/22 00:07:07;;;;;;;4.40;2.25;;;;;;;;;;5039703;28;20041;-60
2023/10/22 00:09:34;;;;;;;3.40;1.75;;;;;;;;;;5058017;28;20080;-60
2023/10/22 00:12:01;;;;;;;7.22;2.35;;;;;;;;;;5058205;28;20029;-60
2023/10/22 00:14:28;;;;;;;4.07;1.65;;;;;;;;;;5042028;28;20469;-61
2023/10/22 00:16:55;;;;;;;3.88;2.22;;;;;;;;;;5015440;28;20033;-61
2023/10/22 00:19:21;;;;;;;2.53;1.70;;;;;;;;;;5033210;28;20048;-61
2023/10/22 00:21:48;;;;;;;1.95;1.40;;;;;;;;;;5053011;28;20025;-61
2023/10/22 00:24:15;;;;;;;5.57;2.30;;;;;;;;;;5052866;28;20020;-60
2023/10/22 00:26:41;;;;;;;5.90;3.10;;;;;;;;;;5038670;28;20430;-61
2023/10/22 00:29:08;;;;;;;3.47;2.15;;;;;;;;;;5056690;28;20091;-62
2023/10/22 00:31:35;;;;;;;19.73;3.43;;;;;;;;;;5058024;28;20032;-61
2023/10/22 00:34:01;;;;;;;3.60;2.13;;;;;;;;;;5057810;28;20078;-61
2023/10/22 00:36:28;;;;;;;2.17;1.60;;;;;;;;;;5057996;28;20159;-61
2023/10/22 00:38:55;;;;;;;8.60;2.13;;;;;;;;;;5053677;28;20124;-59
2023/10/22 00:41:21;;;;;;;13.30;3.27;;;;;;;;;;5050213;28;20094;-61
2023/10/22 00:43:48;;;;;;;2.83;1.70;;;;;;;;;;5049655;28;20025;-61
2023/10/22 00:46:22;;;;;;;4.20;2.07;;;;;;;;;;5049440;28;20483;-61
2023/10/22 00:48:48;;;;;;;4.60;2.42;;;;;;;;;;5036036;28;20087;-60
2023/10/22 00:51:15;;;;;;;5.07;2.70;;;;;;;;;;5034793;28;20025;-60
2023/10/22 00:53:43;;;;;;;5.27;2.90;;;;;;;;;;5034383;28;20022;-61
2023/10/22 00:56:10;;;;;;;3.80;2.43;;;;;;;;;;5034645;28;20018;-60
2023/10/22 00:58:38;;;;;;;26.17;2.60;;;;;;;;;;5034417;28;20048;-60
2023/10/22 01:01:08;;;;;;;4.03;2.47;;;;;;;;;;5031648;28;20036;-61
2023/10/22 01:03:38;;;;;;;8.23;3.50;;;;;;;;;;5029665;28;20108;-61
2023/10/22 01:06:05;;;;;;;6.10;2.37;;;;;;;;;;5029493;28;20475;-61
2023/10/22 01:08:35;;;;;;;10.00;2.53;;;;;;;;;;5046520;28;20422;-61
2023/10/22 01:11:05;;;;;;;2.60;1.80;;;;;;;;;;5051052;28;20031;-59
2023/10/22 01:13:32;;;;;;;10.37;2.17;;;;;;;;;;5045854;28;20032;-59
2023/10/22 01:15:59;;;;;;;15.03;2.97;;;;;;;;;;5033617;28;20476;-60
2023/10/22 01:18:27;;;;;;;10.80;3.00;;;;;;;;;;5033798;28;20208;-59
2023/10/22 01:20:54;;;;;;;4.00;2.53;;;;;;;;;;5034279;28;20032;-59
2023/10/22 01:23:21;;;;;;;4.53;2.03;;;;;;;;;;5047969;28;20051;-61
2023/10/22 01:25:47;;;;;;;2.07;1.47;;;;;;;;;;5049166;28;20031;-58
2023/10/22 01:28:14;;;;;;;2.87;1.70;;;;;;;;;;5049164;28;20028;-60
2023/10/22 01:30:41;;;;;;;2.93;2.10;;;;;;;;;;5049249;28;20021;-59
2023/10/22 01:33:08;;;;;;;3.13;2.10;;;;;;;;;;5035922;28;20043;-59
2023/10/22 01:35:35;;;;;;;5.57;2.63;;;;;;;;;;5033283;28;20032;-59
2023/10/22 01:38:01;;;;;;;8.37;2.77;;;;;;;;;;5046239;28;20064;-59
2023/10/22 01:40:28;;;;;;;5.57;2.47;;;;;;;;;;5053547;28;20028;-59
2023/10/22 01:42:55;;;;;;;4.50;2.73;;;;;;;;;;5049431;28;20031;-60
2023/10/22 01:45:23;;;;;;;2.83;2.00;;;;;;;;;;5039572;28;20036;-59
2023/10/22 01:47:50;;;;;;;4.30;2.07;;;;;;;;;;5028658;28;20079;-59
2023/10/22 01:50:17;;;;;;;2.67;1.80;;;;;;;;;;5028568;28;20668;-59
2023/10/22 01:52:43;;;;;;;4.30;2.33;;;;;;;;;;5038111;28;20052;-59
2023/10/22 01:55:10;;;;;;;7.13;3.17;;;;;;;;;;5048354;28;20028;-59
2023/10/22 01:57:37;;;;;;;5.00;1.60;;;;;;;;;;5052667;28;20037;-59
2023/10/22 02:00:04;;;;;;;4.97;2.07;;;;;;;;;;5053229;28;20029;-60
2023/10/22 02:02:30;;;;;;;3.97;2.53;;;;;;;;;;5048081;28;20064;-59
2023/10/22 02:04:57;;;;;;;4.23;2.53;;;;;;;;;;5035255;28;20044;-59
2023/10/22 02:07:23;;;;;;;1.70;1.33;;;;;;;;;;5041077;28;20032;-59
2023/10/22 02:09:50;;;;;;;2.33;1.70;;;;;;;;;;5048269;28;20025;-59
2023/10/22 02:12:17;;;;;;;3.70;1.93;;;;;;;;;;5048263;28;20024;-58
2023/10/22 02:14:43;;;;;;;5.80;2.30;;;;;;;;;;5030031;28;20076;-59
2023/10/22 02:17:11;;;;;;;6.97;2.50;;;;;;;;;;5032233;28;20078;-61
2023/10/22 02:19:37;;;;;;;3.67;2.40;;;;;;;;;;5031295;28;20113;-59
2023/10/22 02:22:04;;;;;;;5.97;2.70;;;;;;;;;;5033847;28;20144;-59
2023/10/22 02:24:31;;;;;;;16.30;3.27;;;;;;;;;;5044527;28;20387;-59
2023/10/22 02:26:57;;;;;;;5.57;3.30;;;;;;;;;;5052217;28;20032;-59
2023/10/22 02:29:26;;;;;;;2.63;1.87;;;;;;;;;;5052622;28;20021;-59
2023/10/22 02:31:55;;;;;;;4.83;2.40;;;;;;;;;;5048262;28;20446;-59
2023/10/22 02:34:22;;;;;;;3.23;2.10;;;;;;;;;;5037474;28;20104;-60
2023/10/22 02:36:48;;;;;;;4.60;2.30;;;;;;;;;;5027602;28;20357;-59
2023/10/22 02:39:15;;;;;;;5.57;2.07;;;;;;;;;;5037247;28;20052;-58
2023/10/22 02:41:45;;;;;;;3.80;1.90;;;;;;;;;;5050114;28;20393;-59
2023/10/22 02:44:12;;;;;;;1.73;1.17;;;;;;;;;;5052379;28;20025;-59
2023/10/22 02:46:38;;;;;;;5.43;2.27;;;;;;;;;;5052067;28;20036;-59
2023/10/22 02:49:17;;;;;;;2.03;1.40;;;;;;;;;;5044667;28;20018;-59
2023/10/22 02:51:44;;;;;;;13.07;2.43;;;;;;;;;;5031454;28;20030;-58
2023/10/22 02:54:10;;;;;;;5.20;2.37;;;;;;;;;;5029005;28;20024;-59
2023/10/22 02:56:39;;;;;;;3.47;2.13;;;;;;;;;;5027588;28;20610;-59
2023/10/22 02:59:07;;;;;;;9.83;1.67;;;;;;;;;;5033391;28;20051;-58
2023/10/22 03:01:35;;;;;;;2.37;1.50;;;;;;;;;;5047441;28;20087;-59
2023/10/22 03:04:02;;;;;;;2.83;1.57;;;;;;;;;;5048856;28;20459;-59
2023/10/22 03:06:30;;;;;;;2.37;1.60;;;;;;;;;;5052175;28;20048;-59
2023/10/22 03:08:57;;;;;;;4.23;2.23;;;;;;;;;;5051553;28;20455;-59
2023/10/22 03:11:31;;;;;;;2.70;1.70;;;;;;;;;;5052154;28;20105;-59
2023/10/22 03:13:58;;;;;;;1.98;1.52;;;;;;;;;;5040200;28;20025;-59
2023/10/22 03:16:25;;;;;;;3.50;1.63;;;;;;;;;;5029690;28;20814;-59
2023/10/22 03:18:52;;;;;;;10.37;2.00;;;;;;;;;;5031017;28;20033;-58
2023/10/22 03:21:20;;;;;;;7.80;2.80;;;;;;;;;;5047085;28;20025;-58
2023/10/22 03:23:47;;;;;;;4.70;2.63;;;;;;;;;;5046933;28;20539;-58
2023/10/22 03:26:16;;;;;;;12.80;2.03;;;;;;;;;;5048187;28;20388;-58
2023/10/22 03:28:45;;;;;;;3.87;2.33;;;;;;;;;;5051489;28;20029;-59
2023/10/22 03:31:12;;;;;;;4.00;2.20;;;;;;;;;;5051632;28;20029;-58
2023/10/22 03:33:39;;;;;;;3.47;1.63;;;;;;;;;;5051776;28;20468;-58
2023/10/22 03:36:09;;;;;;;4.20;2.53;;;;;;;;;;5039608;28;20049;-58
2023/10/22 03:38:35;;;;;;;6.07;2.20;;;;;;;;;;5029834;28;20041;-58
2023/10/22 03:41:03;;;;;;;8.57;2.17;;;;;;;;;;5042977;28;20017;-59
2023/10/22 03:43:30;;;;;;;2.47;1.83;;;;;;;;;;5034960;28;20033;-59
2023/10/22 03:45:58;;;;;;;2.80;1.90;;;;;;;;;;5030623;28;20029;-59
2023/10/22 03:48:25;;;;;;;5.40;2.47;;;;;;;;;;5046644;28;20033;-59
2023/10/22 03:50:52;;;;;;;2.97;1.63;;;;;;;;;;5051105;28;20021;-58
2023/10/22 03:53:19;;;;;;;2.53;1.30;;;;;;;;;;5043691;28;20029;-58
2023/10/22 03:55:46;;;;;;;3.60;2.07;;;;;;;;;;5031511;28;20384;-59
2023/10/22 03:58:13;;;;;;;9.30;2.77;;;;;;;;;;5038407;28;20065;-58
2023/10/22 04:00:39;;;;;;;2.83;2.00;;;;;;;;;;5050363;28;20036;-59
2023/10/22 04:03:06;;;;;;;4.03;2.07;;;;;;;;;;5046561;28;20476;-59
2023/10/22 04:05:33;;;;;;;4.90;1.93;;;;;;;;;;5046542;28;20025;-59
2023/10/22 04:08:00;;;;;;;1.90;1.60;;;;;;;;;;5040962;28;20021;-59
2023/10/22 04:10:27;;;;;;;2.60;1.67;;;;;;;;;;5026208;28;20029;-59
2023/10/22 04:12:54;;;;;;;6.27;2.00;;;;;;;;;;5031080;28;20138;-58
2023/10/22 04:15:21;;;;;;;1.70;1.30;;;;;;;;;;5031484;28;20030;-59
2023/10/22 04:17:47;;;;;;;4.73;1.57;;;;;;;;;;5036904;28;20030;-58
2023/10/22 04:20:14;;;;;;;1.47;1.27;;;;;;;;;;5055019;28;20021;-58
2023/10/22 04:22:44;;;;;;;5.70;1.37;;;;;;;;;;5055090;28;20075;-58
2023/10/22 04:25:12;;;;;;;2.60;2.03;;;;;;;;;;5050150;28;20021;-59
2023/10/22 04:27:39;;;;;;;2.30;1.50;;;;;;;;;;5047723;28;20029;-59
2023/10/22 04:30:07;;;;;;;2.77;1.90;;;;;;;;;;5030034;28;20539;-58
2023/10/22 04:32:34;;;;;;;3.00;2.07;;;;;;;;;;5030041;28;20034;-58
2023/10/22 04:35:01;;;;;;;2.20;1.43;;;;;;;;;;5033725;28;20025;-58
2023/10/22 04:37:28;;;;;;;2.80;1.73;;;;;;;;;;5034686;28;20105;-58
2023/10/22 04:39:57;;;;;;;3.33;2.17;;;;;;;;;;5053996;28;20028;-58
2023/10/22 04:42:25;;;;;;;3.20;2.20;;;;;;;;;;5054457;28;20078;-58
2023/10/22 04:44:51;;;;;;;1.23;1.13;;;;;;;;;;5054550;28;20029;-58
2023/10/22 04:47:18;;;;;;;3.10;1.80;;;;;;;;;;5050284;28;20017;-58
2023/10/22 04:49:45;;;;;;;6.73;3.33;;;;;;;;;;5031007;28;20041;-58
2023/10/22 04:52:21;;;;;;;2.07;1.70;;;;;;;;;;5029317;28;20025;-58
2023/10/22 04:54:48;;;;;;;3.43;2.30;;;;;;;;;;5029275;28;20099;-58
2023/10/22 04:57:14;;;;;;;1.90;1.40;;;;;;;;;;5047434;28;20041;-59
2023/10/22 04:59:41;;;;;;;5.00;2.10;;;;;;;;;;5050672;28;20025;-59
2023/10/22 05:02:08;;;;;;;2.70;2.00;;;;;;;;;;5051432;28;20376;-60
2023/10/22 05:04:34;;;;;;;14.67;1.43;;;;;;;;;;5054286;28;20025;-59
2023/10/22 05:07:01;;;;;;;2.40;1.70;;;;;;;;;;5050489;28;20025;-59
2023/10/22 05:09:28;;;;;;;2.70;1.93;;;;;;;;;;5041567;28;20032;-59
2023/10/22 05:11:54;;;;;;;6.23;2.53;;;;;;;;;;5040849;28;20025;-59
2023/10/22 05:14:22;;;;;;;2.33;1.53;;;;;;;;;;5029177;28;20032;-59
2023/10/22 05:16:48;;;;;;;3.20;2.13;;;;;;;;;;5041786;28;20025;-59
2023/10/22 05:19:15;;;;;;;6.67;2.10;;;;;;;;;;5050935;28;20041;-59
2023/10/22 05:21:42;;;;;;;3.07;2.03;;;;;;;;;;5052664;28;20094;-59
2023/10/22 05:24:11;;;;;;;3.97;2.20;;;;;;;;;;5050988;28;20021;-59
2023/10/22 05:26:38;;;;;;;2.23;1.67;;;;;;;;;;5045608;28;20033;-59
2023/10/22 05:29:05;;;;;;;5.20;2.43;;;;;;;;;;5052447;28;20028;-59
2023/10/22 05:31:31;;;;;;;4.60;2.43;;;;;;;;;;5050436;28;20033;-59
2023/10/22 05:33:58;;;;;;;3.17;2.17;;;;;;;;;;5048286;28;20070;-59
2023/10/22 05:36:26;;;;;;;2.87;1.90;;;;;;;;;;5046537;28;20068;-59
2023/10/22 05:38:52;;;;;;;10.37;2.00;;;;;;;;;;5048074;28;20040;-59
2023/10/22 05:41:23;;;;;;;4.07;2.50;;;;;;;;;;5045960;28;20048;-59
2023/10/22 05:43:59;;;;;;;6.60;2.10;;;;;;;;;;5033519;28;20033;-59
2023/10/22 05:46:26;;;;;;;1.77;1.47;;;;;;;;;;5045903;28;20029;-59
2023/10/22 05:48:53;;;;;;;3.57;2.17;;;;;;;;;;5053555;28;20047;-59
2023/10/22 05:51:19;;;;;;;9.30;2.87;;;;;;;;;;5053416;28;20100;-59
2023/10/22 05:53:46;;;;;;;2.43;1.70;;;;;;;;;;5050815;28;20143;-59
2023/10/22 05:56:13;;;;;;;1.77;1.23;;;;;;;;;;5038929;28;20026;-59
2023/10/22 05:58:40;;;;;;;3.80;2.30;;;;;;;;;;5048122;28;20060;-59
2023/10/22 06:01:06;;;;;;;30.40;2.63;;;;;;;;;;5048264;28;20078;-59
2023/10/22 06:03:33;;;;;;;4.13;2.80;;;;;;;;;;5049084;28;20664;-59
2023/10/22 06:06:00;;;;;;;3.57;2.20;;;;;;;;;;5045023;28;20028;-59
2023/10/22 06:08:27;;;;;;;3.57;2.07;;;;;;;;;;5041895;28;20605;-59
2023/10/22 06:10:55;;;;;;;3.27;2.10;;;;;;;;;;5052703;28;20028;-59
2023/10/22 06:13:21;;;;;;;3.23;2.23;;;;;;;;;;5052818;28;20025;-59
2023/10/22 06:15:48;;;;;;;3.17;2.20;;;;;;;;;;5051087;28;20025;-59
2023/10/22 06:18:15;;;;;;;2.43;1.63;;;;;;;;;;5047627;28;20091;-59
2023/10/22 06:20:41;;;;;;;3.97;2.13;;;;;;;;;;5047624;28;20032;-59
2023/10/22 06:23:08;;;;;;;3.73;2.07;;;;;;;;;;5032520;28;20101;-59
2023/10/22 06:25:35;;;;;;;3.13;2.13;;;;;;;;;;5027742;28;20026;-59
2023/10/22 06:28:02;;;;;;;3.03;2.27;;;;;;;;;;5032896;28;20108;-58
2023/10/22 06:30:29;;;;;;;3.67;2.30;;;;;;;;;;5032191;28;20030;-59
2023/10/22 06:32:57;;;;;;;3.17;2.40;;;;;;;;;;5044591;28;20503;-58
2023/10/22 06:35:25;;;;;;;4.17;2.70;;;;;;;;;;5052772;28;20727;-59
2023/10/22 06:37:52;;;;;;;4.47;2.60;;;;;;;;;;5052493;28;20121;-58
2023/10/22 06:40:20;;;;;;;4.23;2.87;;;;;;;;;;5046457;28;20029;-59
2023/10/22 06:42:47;;;;;;;5.70;1.73;;;;;;;;;;5046648;28;20032;-58
2023/10/22 06:45:14;;;;;;;5.47;1.90;;;;;;;;;;5047052;28;20033;-57
2023/10/22 06:47:41;;;;;;;3.47;2.20;;;;;;;;;;5046783;28;20494;-58
2023/10/22 06:50:09;;;;;;;2.90;2.03;;;;;;;;;;5051498;28;20024;-58
2023/10/22 06:52:36;;;;;;;8.13;2.47;;;;;;;;;;5042973;28;20562;-58
2023/10/22 06:55:05;;;;;;;3.43;2.37;;;;;;;;;;5032537;28;20029;-57
2023/10/22 06:57:31;;;;;;;3.07;2.07;;;;;;;;;;5032159;28;20116;-57
2023/10/22 06:59:59;;;;;;;3.77;2.73;;;;;;;;;;5032240;28;20017;-56
2023/10/22 07:02:26;;;;;;;2.80;1.93;;;;;;;;;;5034580;28;20037;-57
2023/10/22 07:04:54;;;;;;;3.63;2.40;;;;;;;;;;5046807;28;20040;-57
2023/10/22 07:07:21;;;;;;;4.77;3.03;;;;;;;;;;5046920;28;20025;-57
2023/10/22 07:09:47;;;;;;;3.30;2.27;;;;;;;;;;5046682;28;20049;-58
2023/10/22 07:12:15;;;;;;;3.80;2.50;;;;;;;;;;5044928;28;20018;-57
2023/10/22 07:14:42;;;;;;;2.87;2.10;;;;;;;;;;5031943;28;20388;-58
2023/10/22 07:17:09;;;;;;;2.87;2.07;;;;;;;;;;5031612;28;20036;-59
2023/10/22 07:19:36;;;;;;;3.10;2.33;;;;;;;;;;5031964;28;20116;-59
2023/10/22 07:22:02;;;;;;;4.77;2.77;;;;;;;;;;5035024;28;20487;-59
2023/10/22 07:24:30;;;;;;;4.17;2.27;;;;;;;;;;5047285;28;20055;-59
2023/10/22 07:26:57;;;;;;;3.90;2.27;;;;;;;;;;5046415;28;20386;-58
2023/10/22 07:29:24;;;;;;;2.63;1.73;;;;;;;;;;5046711;28;20025;-58
2023/10/22 07:31:51;;;;;;;4.07;2.27;;;;;;;;;;5044592;28;20028;-59
2023/10/22 07:34:18;;;;;;;6.70;3.27;;;;;;;;;;5029507;28;20100;-58
2023/10/22 07:36:45;;;;;;;3.37;2.47;;;;;;;;;;5031448;28;20112;-57
2023/10/22 07:39:12;;;;;;;4.13;2.77;;;;;;;;;;5031636;28;20061;-58
2023/10/22 07:41:39;;;;;;;4.80;2.63;;;;;;;;;;5031531;28;20032;-57
2023/10/22 07:44:06;;;;;;;3.43;2.50;;;;;;;;;;5031629;28;20025;-56
2023/10/22 07:46:33;;;;;;;3.80;2.60;;;;;;;;;;5028746;28;20040;-57
2023/10/22 07:49:00;;;;;;;3.23;2.23;;;;;;;;;;5026501;28;20064;-58
2023/10/22 07:51:27;;;;;;;3.20;2.43;;;;;;;;;;5028913;28;20120;-56
2023/10/22 07:53:54;;;;;;;2.40;1.70;;;;;;;;;;5041288;28;20548;-56
2023/10/22 07:56:20;;;;;;;7.37;3.40;;;;;;;;;;5029617;28;20029;-56
2023/10/22 07:58:47;;;;;;;4.97;3.50;;;;;;;;;;5033365;28;20042;-56
2023/10/22 08:01:14;;;;;;;2.73;2.10;;;;;;;;;;5033335;28;20021;-56
2023/10/22 08:03:41;;;;;;;4.07;1.73;;;;;;;;;;5037055;28;20079;-56
2023/10/22 08:06:08;;;;;;;2.20;1.70;;;;;;;;;;5053204;28;20100;-56
2023/10/22 08:08:34;;;;;;;2.47;2.07;;;;;;;;;;5050984;28;20064;-57
2023/10/22 08:11:02;;;;;;;3.47;2.40;;;;;;;;;;5048159;28;20044;-56
2023/10/22 08:13:29;;;;;;;2.97;2.10;;;;;;;;;;5046563;28;20029;-57
2023/10/22 08:15:56;;;;;;;2.93;2.13;;;;;;;;;;5029460;28;20018;-57
2023/10/22 08:18:23;;;;;;;3.77;2.63;;;;;;;;;;5030350;28;20037;-57
2023/10/22 08:20:49;;;;;;;2.43;1.73;;;;;;;;;;5034786;28;20105;-57
2023/10/22 08:23:16;;;;;;;17.80;3.27;;;;;;;;;;5034823;28;20025;-57
2023/10/22 08:25:52;;;;;;;5.90;2.23;;;;;;;;;;5034687;28;20021;-56
2023/10/22 08:28:19;;;;;;;4.00;3.30;;;;;;;;;;5034638;28;20476;-57
2023/10/22 08:30:46;;;;;;;3.03;2.43;;;;;;;;;;5032653;28;20105;-58
2023/10/22 08:33:13;;;;;;;2.50;2.20;;;;;;;;;;5036532;28;20594;-57
2023/10/22 08:35:40;;;;;;;4.60;3.30;;;;;;;;;;5049119;28;20554;-57
2023/10/22 08:38:07;;;;;;;4.40;2.90;;;;;;;;;;5049313;28;20098;-57
2023/10/22 08:40:38;;;;;;;6.40;3.00;;;;;;;;;;5050084;28;21350;-57
2023/10/22 08:43:10;;;;;;;2.60;2.10;;;;;;;;;;5047685;28;20027;-58
2023/10/22 08:45:37;;;;;;;6.93;3.53;;;;;;;;;;5034335;28;20438;-57
2023/10/22 08:48:04;;;;;;;3.03;2.13;;;;;;;;;;5034205;28;20038;-57
2023/10/22 08:50:31;;;;;;;4.00;1.77;;;;;;;;;;5033839;28;20083;-57
2023/10/22 08:52:58;;;;;;;2.83;1.97;;;;;;;;;;5037313;28;20745;-57
2023/10/22 08:55:27;;;;;;;2.13;1.80;;;;;;;;;;5048909;28;20539;-58
2023/10/22 08:57:54;;;;;;;2.87;2.17;;;;;;;;;;5048862;28;20037;-57
2023/10/22 09:00:21;;;;;;;3.60;2.33;;;;;;;;;;5048988;28;20028;-57
2023/10/22 09:02:49;;;;;;;3.87;2.60;;;;;;;;;;5045164;28;20040;-57
2023/10/22 09:05:16;;;;;;;3.80;2.70;;;;;;;;;;5033891;28;20025;-57
2023/10/22 09:07:52;;;;;;;3.73;2.37;;;;;;;;;;5033459;28;20017;-57
2023/10/22 09:10:26;;;;;;;2.93;2.30;;;;;;;;;;5033866;28;20025;-58
2023/10/22 09:12:53;;;;;;;6.47;2.60;;;;;;;;;;5037546;28;20442;-57
2023/10/22 09:15:20;;;;;;;3.23;2.40;;;;;;;;;;5052485;28;20029;-57
2023/10/22 09:17:47;;;;;;;3.10;2.50;;;;;;;;;;5048321;28;20090;-57
2023/10/22 09:20:23;;;;;;;4.87;3.47;;;;;;;;;;5047803;28;20379;-57
2023/10/22 09:22:50;;;;;;;4.30;3.00;;;;;;;;;;5045191;28;20579;-57
2023/10/22 09:25:18;;;;;;;4.13;2.83;;;;;;;;;;5029052;28;20021;-57
2023/10/22 09:27:45;;;;;;;5.17;3.43;;;;;;;;;;5051849;28;20044;-57
2023/10/22 09:30:12;;;;;;;3.23;2.43;;;;;;;;;;5053642;28;20033;-57
2023/10/22 09:32:48;;;;;;;5.10;3.33;;;;;;;;;;5051799;28;20025;-57
2023/10/22 09:35:15;;;;;;;4.47;2.67;;;;;;;;;;5033273;28;20018;-57
2023/10/22 09:37:53;;;;;;;6.67;3.13;;;;;;;;;;5031997;28;20036;-57
2023/10/22 09:40:20;;;;;;;5.13;4.10;;;;;;;;;;5028001;28;20541;-57
2023/10/22 09:42:49;;;;;;;6.80;3.47;;;;;;;;;;5029906;28;20079;-57
2023/10/22 09:45:16;;;;;;;4.23;3.30;;;;;;;;;;5048050;28;20039;-57
2023/10/22 09:47:44;;;;;;;5.47;3.33;;;;;;;;;;5048659;28;20075;-57
2023/10/22 09:50:14;;;;;;;7.67;3.80;;;;;;;;;;5052972;28;20078;-57
2023/10/22 09:52:43;;;;;;;4.90;3.17;;;;;;;;;;5051883;28;20029;-57
2023/10/22 09:55:13;;;;;;;6.40;3.20;;;;;;;;;;5033490;28;20025;-57
2023/10/22 09:57:41;;;;;;;3.57;2.60;;;;;;;;;;5033065;28;20034;-57
2023/10/22 10:00:12;;;;;;;3.70;2.60;;;;;;;;;;5032238;28;20391;-58
2023/10/22 10:02:43;;;;;;;4.47;2.90;;;;;;;;;;5028126;28;20032;-57
2023/10/22 10:05:10;;;;;;;6.00;4.30;;;;;;;;;;5047781;28;20375;-57
2023/10/22 10:07:39;;;;;;;5.70;3.80;;;;;;;;;;5048012;28;20033;-57
2023/10/22 10:10:06;;;;;;;6.30;2.87;;;;;;;;;;5048290;28;20021;-57
2023/10/22 10:12:36;;;;;;;5.27;4.17;;;;;;;;;;5053178;28;20052;-57
2023/10/22 10:15:03;;;;;;;13.67;3.17;;;;;;;;;;5031989;28;20033;-57
2023/10/22 10:17:30;;;;;;;2.77;1.83;;;;;;;;;;5039450;28;20029;-57
2023/10/22 10:20:15;;;;;;;3.27;2.27;;;;;;;;;;5041248;28;20084;-57
2023/10/22 10:22:44;;;;;;;2.63;2.15;;;;;;;;;;5031524;28;20557;-57
2023/10/22 10:25:29;;;;;;;4.33;2.80;;;;;;;;;;5047551;28;20020;-57
2023/10/22 10:27:56;;;;;;;8.57;3.58;;;;;;;;;;5047322;28;20024;-57
2023/10/22 10:30:23;;;;;;;4.73;2.80;;;;;;;;;;5047103;28;20438;-58
2023/10/22 10:32:51;;;;;;;5.03;3.80;;;;;;;;;;5047597;28;20475;-57
2023/10/22 10:35:18;;;;;;;4.30;3.23;;;;;;;;;;5032630;28;20021;-57
2023/10/22 10:38:04;;;;;;;4.03;3.00;;;;;;;;;;5044588;28;20041;-57
2023/10/22 10:41:06;;;;;;;2.95;2.42;;;;;;;;;;5034409;28;20487;-57
2023/10/22 10:43:50;;;;;;;4.20;3.10;;;;;;;;;;4952542;29;20422;-57
2023/10/22 10:46:30;;;;;;;6.65;3.90;;;;;;;;;;5025287;28;20040;-57
2023/10/22 10:48:57;;;;;;;4.43;2.87;;;;;;;;;;5047241;28;20032;-57
2023/10/22 10:51:25;;;;;;;5.93;4.00;;;;;;;;;;5046993;28;20025;-58
2023/10/22 10:54:07;;;;;;;3.17;2.17;;;;;;;;;;5047279;28;20030;-57
2023/10/22 10:56:46;;;;;;;3.37;2.53;;;;;;;;;;5045529;28;20068;-57
2023/10/22 10:59:25;;;;;;;3.97;2.80;;;;;;;;;;5032206;28;20041;-57
2023/10/22 11:02:06;;;;;;;6.27;2.93;;;;;;;;;;5032496;28;20487;-57
2023/10/22 11:04:33;;;;;;;4.10;3.00;;;;;;;;;;5031951;28;20262;-56
2023/10/22 11:07:00;;;;;;;5.57;2.87;;;;;;;;;;5039988;28;20052;-57
2023/10/22 11:09:28;;;;;;;4.17;2.10;;;;;;;;;;5046845;28;20036;-57
2023/10/22 11:12:04;;;;;;;4.50;3.17;;;;;;;;;;5046854;28;20119;-57
2023/10/22 11:14:35;;;;;;;4.60;2.93;;;;;;;;;;5027238;28;20262;-57
2023/10/22 11:17:03;;;;;;;4.40;2.60;;;;;;;;;;5026867;28;20025;-57
2023/10/22 11:19:31;;;;;;;4.40;3.03;;;;;;;;;;5031582;28;20299;-57
2023/10/22 11:21:58;;;;;;;3.53;2.33;;;;;;;;;;5031814;28;20025;-57
2023/10/22 11:24:34;;;;;;;7.23;2.63;;;;;;;;;;5032130;28;20056;-57
2023/10/22 11:27:03;;;;;;;3.63;2.60;;;;;;;;;;5051624;28;20297;-57
2023/10/22 11:29:30;;;;;;;3.03;2.43;;;;;;;;;;5051031;28;20290;-57
2023/10/22 11:31:57;;;;;;;3.13;2.37;;;;;;;;;;5046634;28;20324;-57
2023/10/22 11:34:25;;;;;;;3.37;2.63;;;;;;;;;;5046284;28;20269;-57
2023/10/22 11:36:58;;;;;;;5.77;3.00;;;;;;;;;;5046301;28;20308;-58
2023/10/22 11:39:33;;;;;;;4.97;2.90;;;;;;;;;;5046514;28;20314;-57
2023/10/22 11:41:59;;;;;;;2.20;1.65;;;;;;;;;;5051747;28;20087;-57
2023/10/22 11:44:30;;;;;;;7.93;2.50;;;;;;;;;;5050765;28;20103;-57
2023/10/22 11:46:58;;;;;;;4.27;2.70;;;;;;;;;;5051443;28;20380;-57
2023/10/22 11:49:25;;;;;;;5.93;3.40;;;;;;;;;;5051519;28;20263;-57
2023/10/22 11:51:51;;;;;;;6.67;3.03;;;;;;;;;;5051320;28;20585;-57
2023/10/22 11:54:18;;;;;;;4.17;2.90;;;;;;;;;;5046271;28;20315;-55
2023/10/22 11:56:45;;;;;;;4.30;2.77;;;;;;;;;;5027117;28;20328;-56
2023/10/22 11:59:11;;;;;;;3.53;2.77;;;;;;;;;;5026162;28;20348;-56
2023/10/22 12:01:40;;;;;;;4.43;3.30;;;;;;;;;;5026393;28;20259;-56
2023/10/22 12:04:07;;;;;;;4.33;3.30;;;;;;;;;;5031176;28;20315;-56
2023/10/22 12:06:34;;;;;;;9.10;3.23;;;;;;;;;;5048480;28;20288;-56
2023/10/22 12:09:03;;;;;;;8.00;4.23;;;;;;;;;;5051403;28;20262;-56
2023/10/22 12:11:30;;;;;;;4.47;3.40;;;;;;;;;;5051363;28;20265;-56
2023/10/22 12:13:56;;;;;;;4.10;2.97;;;;;;;;;;5051332;28;20258;-55
2023/10/22 12:16:23;;;;;;;3.70;2.63;;;;;;;;;;5030539;28;20297;-55
2023/10/22 12:18:51;;;;;;;9.47;4.10;;;;;;;;;;5026073;28;20301;-55
2023/10/22 12:21:18;;;;;;;7.97;4.63;;;;;;;;;;5025817;28;20275;-55
2023/10/22 12:23:45;;;;;;;5.03;3.67;;;;;;;;;;5026102;28;20262;-55
2023/10/22 12:26:12;;;;;;;4.63;3.23;;;;;;;;;;5043525;28;20274;-56
2023/10/22 12:28:39;;;;;;;4.93;3.63;;;;;;;;;;5051296;28;20348;-55
2023/10/22 12:31:07;;;;;;;2.53;1.83;;;;;;;;;;5051286;28;20329;-55
2023/10/22 12:33:35;;;;;;;3.63;2.40;;;;;;;;;;5051272;28;20315;-56
2023/10/22 12:36:04;;;;;;;6.27;3.80;;;;;;;;;;5039557;28;20273;-56
2023/10/22 12:38:32;;;;;;;5.90;3.93;;;;;;;;;;5028421;28;20279;-56
2023/10/22 12:40:59;;;;;;;4.30;2.97;;;;;;;;;;5029698;28;20259;-56
2023/10/22 12:43:26;;;;;;;6.20;4.13;;;;;;;;;;5029165;28;20305;-56
2023/10/22 12:45:53;;;;;;;3.60;2.33;;;;;;;;;;5030525;28;20734;-56
2023/10/22 12:48:19;;;;;;;6.63;3.13;;;;;;;;;;5033521;28;20267;-55
2023/10/22 12:50:49;;;;;;;5.47;4.17;;;;;;;;;;5034627;28;20263;-56
2023/10/22 12:53:16;;;;;;;4.93;3.93;;;;;;;;;;5034446;28;20652;-56
2023/10/22 12:55:51;;;;;;;5.37;4.13;;;;;;;;;;5039266;28;20349;-56
2023/10/22 12:58:18;;;;;;;;;;;;;;;;;;5054827;28;20707;-56
2023/10/22 13:00:45;;;;;;;5.77;3.50;;;;;;;;;;5049977;28;19909;-56
2023/10/22 13:03:12;;;;;;;5.83;3.50;;;;;;;;;;5047049;28;20353;-56
2023/10/22 13:05:39;;;;;;;6.93;3.73;;;;;;;;;;5049102;28;20250;-56
2023/10/22 13:08:07;;;;;;;5.13;4.07;;;;;;;;;;5048717;28;20270;-56
2023/10/22 13:10:34;;;;;;;3.37;2.63;;;;;;;;;;5052490;28;20258;-55
2023/10/22 13:13:01;;;;;;;4.63;3.67;;;;;;;;;;5045101;28;20310;-56
2023/10/22 13:15:28;;;;;;;5.23;3.77;;;;;;;;;;5034226;28;20306;-55
2023/10/22 13:17:55;;;;;;;6.40;4.07;;;;;;;;;;5034443;28;20291;-56
2023/10/22 13:20:22;;;;;;;7.00;4.20;;;;;;;;;;5033955;28;20266;-55
2023/10/22 13:22:49;;;;;;;6.60;3.93;;;;;;;;;;5036519;28;20411;-55
2023/10/22 13:25:16;;;;;;;21.60;5.33;;;;;;;;;;5048216;28;20380;-56
2023/10/22 13:27:42;;;;;;;6.60;4.43;;;;;;;;;;5048231;28;20064;-55
2023/10/22 13:30:10;;;;;;;4.97;3.93;;;;;;;;;;5043257;28;20025;-56
2023/10/22 13:32:37;;;;;;;6.10;4.17;;;;;;;;;;5049631;28;20494;-57
2023/10/22 13:35:03;;;;;;;10.23;4.70;;;;;;;;;;5053834;28;20546;-56
2023/10/22 13:37:30;;;;;;;10.57;5.23;;;;;;;;;;5053653;28;20021;-55
2023/10/22 13:39:57;;;;;;;5.40;3.97;;;;;;;;;;5053822;28;20021;-56
2023/10/22 13:42:23;;;;;;;5.77;4.17;;;;;;;;;;5053663;28;20426;-55
2023/10/22 13:44:50;;;;;;;7.13;4.63;;;;;;;;;;5030770;28;20032;-56
2023/10/22 13:47:17;;;;;;;5.77;3.33;;;;;;;;;;5028264;28;20029;-56
2023/10/22 13:49:44;;;;;;;6.20;3.80;;;;;;;;;;5028030;28;20399;-56
2023/10/22 13:52:11;;;;;;;6.43;3.50;;;;;;;;;;5028307;28;20029;-56
2023/10/22 13:54:38;;;;;;;11.50;6.07;;;;;;;;;;5034598;28;20382;-56
2023/10/22 13:57:05;;;;;;;5.47;3.23;;;;;;;;;;5033293;28;20029;-56
2023/10/22 13:59:32;;;;;;;5.83;3.77;;;;;;;;;;5033384;28;20029;-56
2023/10/22 14:01:59;;;;;;;5.43;3.87;;;;;;;;;;5033205;28;20494;-56
2023/10/22 14:04:26;;;;;;;7.40;3.43;;;;;;;;;;5042736;28;20025;-56
2023/10/22 14:06:54;;;;;;;5.87;3.80;;;;;;;;;;5050337;28;20078;-56
2023/10/22 14:09:21;;;;;;;4.07;2.93;;;;;;;;;;5048034;28;20021;-57
2023/10/22 14:11:49;;;;;;;5.17;3.93;;;;;;;;;;5047677;28;20017;-57
2023/10/22 14:14:16;;;;;;;6.47;3.63;;;;;;;;;;5039259;28;20033;-56
2023/10/22 14:16:42;;;;;;;5.20;3.60;;;;;;;;;;5029566;28;20039;-56
2023/10/22 14:19:09;;;;;;;3.90;2.90;;;;;;;;;;5032731;28;20498;-56
2023/10/22 14:21:36;;;;;;;5.60;3.97;;;;;;;;;;5033051;28;20045;-56
2023/10/22 14:24:02;;;;;;;4.33;3.50;;;;;;;;;;5038755;28;20052;-57
2023/10/22 14:26:32;;;;;;;7.70;4.30;;;;;;;;;;5052375;28;20021;-56
2023/10/22 14:28:59;;;;;;;13.17;3.20;;;;;;;;;;5050646;28;20025;-57
2023/10/22 14:31:25;;;;;;;5.97;3.27;;;;;;;;;;5047569;28;20041;-56
2023/10/22 14:33:52;;;;;;;7.60;4.23;;;;;;;;;;5042304;28;20025;-57
2023/10/22 14:36:19;;;;;;;4.33;2.37;;;;;;;;;;5027374;28;20097;-56
2023/10/22 14:38:46;;;;;;;3.47;2.63;;;;;;;;;;5028369;28;20041;-57
2023/10/22 14:41:12;;;;;;;5.03;3.17;;;;;;;;;;5045076;28;20024;-57
2023/10/22 14:43:40;;;;;;;3.67;2.90;;;;;;;;;;5052491;28;20033;-57
2023/10/22 14:46:08;;;;;;;3.93;2.83;;;;;;;;;;5052312;28;20483;-57
2023/10/22 14:48:35;;;;;;;7.50;3.50;;;;;;;;;;5052375;28;20032;-57
2023/10/22 14:51:02;;;;;;;4.40;3.17;;;;;;;;;;5040643;28;20029;-57
2023/10/22 14:53:33;;;;;;;4.07;2.40;;;;;;;;;;5026938;28;20030;-57